createdAt,value
2018-12-21T00:00:43.781Z,107.63
2018-12-21T00:03:12.522Z,107.00
2018-12-21T00:05:41.251Z,107.47
2018-12-21T00:08:10.030Z,108.30
2018-12-21T00:10:38.791Z,106.07
2018-12-21T00:13:07.654Z,106.50
2018-12-21T00:15:36.386Z,106.37
2018-12-21T00:18:05.210Z,105.50
2018-12-21T00:20:33.941Z,106.87
2018-12-21T00:23:02.754Z,105.80
2018-12-21T00:25:31.494Z,106.20
2018-12-21T00:28:00.322Z,105.93
2018-12-21T00:30:28.366Z,107.00
2018-12-21T00:33:02.518Z,104.90
2018-12-21T00:35:36.454Z,106.27
2018-12-21T00:38:10.724Z,104.83
2018-12-21T00:40:45.788Z,105.63
2018-12-21T00:43:19.765Z,104.93
2018-12-21T00:45:53.501Z,105.00
2018-12-21T00:48:22.329Z,105.33
2018-12-21T00:50:51.078Z,104.93
2018-12-21T00:53:19.820Z,105.27
2018-12-21T00:55:48.552Z,104.30
2018-12-21T00:58:17.382Z,103.90
2018-12-21T01:00:46.101Z,105.03
2018-12-21T01:03:14.839Z,104.53
2018-12-21T01:05:44.038Z,104.57
2018-12-21T01:08:12.840Z,105.27
2018-12-21T01:10:41.932Z,105.27
2018-12-21T01:13:11.947Z,104.83
2018-12-21T01:15:40.942Z,104.17
2018-12-21T01:18:09.762Z,103.87
2018-12-21T01:20:38.502Z,104.60
2018-12-21T01:23:07.234Z,104.70
2018-12-21T01:25:35.979Z,105.33
2018-12-21T01:28:04.802Z,104.67
2018-12-21T01:30:33.609Z,103.93
2018-12-21T01:33:02.351Z,103.47
2018-12-21T01:35:31.173Z,103.63
2018-12-21T01:37:59.897Z,103.97
2018-12-21T01:40:28.645Z,105.30
2018-12-21T01:42:57.375Z,104.13
2018-12-21T01:45:26.215Z,103.67
2018-12-21T01:47:54.954Z,106.30
2018-12-21T01:50:23.702Z,103.30
2018-12-21T01:52:52.511Z,103.67
2018-12-21T01:55:21.246Z,104.30
2018-12-21T01:57:49.973Z,103.53
2018-12-21T02:00:18.874Z,105.07
2018-12-21T02:02:47.610Z,103.40
2018-12-21T02:05:16.476Z,104.60
2018-12-21T02:07:45.258Z,106.00
2018-12-21T02:10:13.999Z,103.53
2018-12-21T02:12:42.729Z,104.13
2018-12-21T02:15:11.631Z,103.43
2018-12-21T02:17:40.369Z,104.50
2018-12-21T02:20:09.377Z,104.00
2018-12-21T02:22:38.161Z,103.27
2018-12-21T02:25:07.044Z,104.70
2018-12-21T02:27:35.787Z,104.03
2018-12-21T02:30:05.687Z,103.53
2018-12-21T02:32:34.432Z,102.40
2018-12-21T02:35:03.252Z,103.50
2018-12-21T02:37:31.991Z,106.67
2018-12-21T02:40:00.769Z,103.57
2018-12-21T02:42:29.583Z,104.63
2018-12-21T02:44:58.340Z,103.53
2018-12-21T02:47:27.078Z,102.70
2018-12-21T02:49:55.826Z,101.77
2018-12-21T02:52:24.702Z,103.67
2018-12-21T02:54:54.830Z,103.53
2018-12-21T02:57:23.587Z,101.47
2018-12-21T02:59:52.317Z,101.87
2018-12-21T03:02:21.062Z,103.83
2018-12-21T03:04:49.799Z,101.90
2018-12-21T03:07:18.530Z,103.20
2018-12-21T03:09:47.274Z,101.57
2018-12-21T03:12:16.018Z,102.47
2018-12-21T03:14:44.747Z,103.70
2018-12-21T03:17:13.496Z,103.77
2018-12-21T03:19:42.211Z,101.67
2018-12-21T03:22:14.985Z,101.67
2018-12-21T03:24:41.659Z,101.50
2018-12-21T03:27:10.494Z,102.17
2018-12-21T03:29:39.242Z,103.27
2018-12-21T03:32:07.982Z,102.53
2018-12-21T03:34:36.711Z,103.00
2018-12-21T03:37:06.483Z,102.83
2018-12-21T03:39:35.433Z,102.00
2018-12-21T03:42:05.300Z,104.17
2018-12-21T03:44:34.022Z,102.37
2018-12-21T03:47:02.762Z,102.57
2018-12-21T03:49:31.686Z,103.20
2018-12-21T03:52:00.421Z,105.40
2018-12-21T03:54:29.162Z,102.47
2018-12-21T03:56:57.899Z,102.17
2018-12-21T03:59:26.637Z,101.47
2018-12-21T04:01:55.534Z,103.80
2018-12-21T04:04:24.287Z,102.97
2018-12-21T04:06:53.088Z,102.03
2018-12-21T04:09:21.832Z,104.43
2018-12-21T04:11:50.637Z,101.87
2018-12-21T04:14:19.374Z,102.40
2018-12-21T04:16:48.121Z,103.10
2018-12-21T04:19:16.862Z,105.10
2018-12-21T04:21:45.599Z,102.30
2018-12-21T04:24:14.359Z,106.07
2018-12-21T04:26:43.093Z,103.60
2018-12-21T04:29:11.831Z,103.80
2018-12-21T04:31:40.563Z,102.60
2018-12-21T04:34:09.797Z,100.93
2018-12-21T04:36:38.537Z,102.90
2018-12-21T04:39:07.386Z,102.80
2018-12-21T04:41:36.115Z,106.43
2018-12-21T04:44:05.135Z,102.43
2018-12-21T04:46:33.870Z,102.70
2018-12-21T04:49:02.613Z,101.30
2018-12-21T04:51:31.430Z,103.77
2018-12-21T04:54:00.175Z,105.83
2018-12-21T04:56:29.030Z,102.40
2018-12-21T04:58:57.766Z,101.30
2018-12-21T05:01:26.508Z,103.00
2018-12-21T05:03:55.259Z,102.00
2018-12-21T05:06:24.077Z,101.03
2018-12-21T05:08:52.821Z,103.20
2018-12-21T05:11:23.534Z,101.17
2018-12-21T05:13:54.577Z,101.77
2018-12-21T05:16:23.307Z,104.33
2018-12-21T05:18:52.211Z,104.33
2018-12-21T05:21:21.031Z,102.03
2018-12-21T05:23:49.774Z,104.70
2018-12-21T05:26:18.502Z,101.27
2018-12-21T05:28:47.238Z,100.93
2018-12-21T05:31:16.017Z,101.53
2018-12-21T05:33:44.834Z,100.97
2018-12-21T05:36:13.566Z,101.97
2018-12-21T05:38:42.315Z,106.23
2018-12-21T05:41:11.046Z,101.67
2018-12-21T05:43:39.782Z,103.20
2018-12-21T05:46:08.551Z,101.53
2018-12-21T05:48:37.446Z,101.87
2018-12-21T05:51:06.184Z,101.97
2018-12-21T05:53:34.970Z,102.37
2018-12-21T05:56:03.834Z,100.63
2018-12-21T05:58:32.581Z,101.10
2018-12-21T06:01:01.318Z,100.53
2018-12-21T06:03:30.066Z,102.47
2018-12-21T06:05:58.810Z,101.93
2018-12-21T06:08:28.686Z,100.57
2018-12-21T06:10:57.461Z,101.27
2018-12-21T06:13:26.221Z,102.03
2018-12-21T06:15:54.959Z,100.23
2018-12-21T06:18:23.714Z,101.80
2018-12-21T06:20:52.538Z,101.03
2018-12-21T06:23:21.470Z,100.33
2018-12-21T06:25:50.160Z,102.60
2018-12-21T06:28:18.902Z,99.80
2018-12-21T06:30:47.631Z,104.73
2018-12-21T06:33:16.366Z,100.93
2018-12-21T06:35:45.109Z,102.20
2018-12-21T06:38:13.846Z,100.07
2018-12-21T06:40:42.581Z,101.03
2018-12-21T06:43:11.370Z,101.67
2018-12-21T06:45:40.115Z,101.27
2018-12-21T06:48:08.834Z,100.10
2018-12-21T06:50:37.658Z,99.67
2018-12-21T06:53:06.394Z,99.50
2018-12-21T06:55:35.174Z,102.10
2018-12-21T06:58:04.070Z,100.60
2018-12-21T07:00:32.889Z,99.70
2018-12-21T07:03:01.630Z,100.10
2018-12-21T07:05:31.618Z,100.37
2018-12-21T07:08:00.355Z,98.87
2018-12-21T07:10:29.215Z,102.70
2018-12-21T07:12:57.942Z,99.77
2018-12-21T07:15:26.689Z,100.03
2018-12-21T07:17:55.436Z,102.60
2018-12-21T07:20:24.170Z,99.30
2018-12-21T07:22:52.977Z,100.07
2018-12-21T07:25:21.875Z,100.17
2018-12-21T07:27:50.602Z,99.43
2018-12-21T07:30:19.418Z,99.57
2018-12-21T07:32:48.149Z,100.30
2018-12-21T07:35:17.801Z,100.73
2018-12-21T07:37:46.622Z,101.33
2018-12-21T07:40:15.438Z,100.27
2018-12-21T07:42:44.169Z,106.23
2018-12-21T07:45:12.987Z,102.30
2018-12-21T07:47:41.781Z,100.67
2018-12-21T07:50:10.634Z,98.83
2018-12-21T07:52:39.455Z,100.23
2018-12-21T07:55:09.567Z,101.70
2018-12-21T07:57:38.407Z,99.37
2018-12-21T08:00:10.159Z,102.30
2018-12-21T08:02:38.902Z,101.90
2018-12-21T08:05:08.251Z,101.37
2018-12-21T08:07:37.122Z,99.27
2018-12-21T08:10:11.410Z,98.60
2018-12-21T08:12:40.154Z,100.00
2018-12-21T08:15:08.902Z,98.47
2018-12-21T08:17:38.314Z,99.47
2018-12-21T08:20:08.275Z,98.43
2018-12-21T08:22:37.002Z,99.47
2018-12-21T08:25:06.746Z,100.23
2018-12-21T08:27:35.494Z,100.03
2018-12-21T08:30:05.346Z,98.40
2018-12-21T08:32:34.082Z,98.87
2018-12-21T08:35:02.920Z,98.93
2018-12-21T08:37:31.683Z,99.97
2018-12-21T08:40:00.437Z,98.80
2018-12-21T08:42:29.390Z,99.07
2018-12-21T08:44:58.218Z,102.83
2018-12-21T08:47:27.028Z,99.50
2018-12-21T08:49:55.808Z,99.13
2018-12-21T08:52:24.618Z,99.13
2018-12-21T08:54:53.366Z,106.80
2018-12-21T08:57:22.145Z,100.60
2018-12-21T08:59:50.889Z,98.33
2018-12-21T09:02:21.073Z,100.47
2018-12-21T09:04:50.148Z,100.97
2018-12-21T09:07:18.881Z,99.90
2018-12-21T09:09:47.615Z,101.03
2018-12-21T09:12:16.359Z,98.63
2018-12-21T09:14:45.181Z,98.77
2018-12-21T09:17:13.942Z,98.77
2018-12-21T09:19:42.679Z,100.70
2018-12-21T09:22:11.418Z,99.13
2018-12-21T09:24:40.216Z,101.83
2018-12-21T09:27:08.987Z,98.87
2018-12-21T09:29:37.871Z,99.93
2018-12-21T09:32:06.631Z,101.20
2018-12-21T09:34:35.382Z,99.20
2018-12-21T09:37:04.202Z,99.77
2018-12-21T09:39:33.012Z,98.77
2018-12-21T09:42:01.747Z,98.43
2018-12-21T09:44:30.544Z,99.57
2018-12-21T09:47:00.322Z,98.57
2018-12-21T09:49:29.201Z,98.20
2018-12-21T09:51:57.974Z,98.83
2018-12-21T09:54:26.701Z,98.37
2018-12-21T09:56:55.437Z,98.47
2018-12-21T09:59:24.260Z,100.13
2018-12-21T10:01:52.998Z,98.63
2018-12-21T10:04:21.734Z,98.47
2018-12-21T10:06:50.553Z,98.37
2018-12-21T10:09:19.286Z,98.90
2018-12-21T10:11:48.102Z,98.83
2018-12-21T10:14:16.917Z,99.13
2018-12-21T10:16:45.739Z,100.27
2018-12-21T10:19:14.678Z,97.97
2018-12-21T10:21:43.415Z,98.00
2018-12-21T10:24:18.529Z,101.53
2018-12-21T10:26:42.955Z,97.90
2018-12-21T10:29:11.717Z,103.30
2018-12-21T10:31:40.491Z,100.13
2018-12-21T10:34:09.304Z,98.83
2018-12-21T10:36:38.047Z,98.60
2018-12-21T10:39:07.609Z,99.30
2018-12-21T10:41:36.429Z,98.60
2018-12-21T10:44:05.166Z,98.73
2018-12-21T10:46:34.010Z,99.27
2018-12-21T10:49:02.763Z,99.53
2018-12-21T10:51:31.559Z,99.00
2018-12-21T10:54:00.312Z,99.37
2018-12-21T10:56:29.182Z,100.90
2018-12-21T10:58:57.922Z,99.40
2018-12-21T11:01:26.656Z,98.60
2018-12-21T11:03:55.382Z,98.40
2018-12-21T11:06:24.124Z,99.07
2018-12-21T11:08:52.858Z,98.57
2018-12-21T11:11:21.665Z,98.47
2018-12-21T11:13:50.392Z,99.70
2018-12-21T11:16:19.162Z,99.30
2018-12-21T11:18:47.903Z,98.93
2018-12-21T11:21:17.030Z,99.67
2018-12-21T11:23:45.750Z,98.70
2018-12-21T11:26:14.486Z,99.57
2018-12-21T11:28:43.218Z,99.07
2018-12-21T11:31:12.042Z,98.47
2018-12-21T11:33:40.854Z,99.27
2018-12-21T11:36:09.974Z,99.60
2018-12-21T11:38:38.774Z,98.73
2018-12-21T11:41:07.517Z,98.80
2018-12-21T11:43:37.271Z,98.40
2018-12-21T11:46:06.077Z,102.47
2018-12-21T11:48:34.814Z,99.17
2018-12-21T11:51:03.734Z,98.97
2018-12-21T11:53:32.467Z,98.03
2018-12-21T11:56:01.231Z,99.43
2018-12-21T11:58:29.970Z,98.67
2018-12-21T12:00:58.700Z,99.30
2018-12-21T12:03:27.510Z,99.60
2018-12-21T12:05:56.246Z,99.83
2018-12-21T12:08:25.070Z,99.50
2018-12-21T12:10:53.802Z,99.40
2018-12-21T12:13:22.534Z,99.33
2018-12-21T12:15:51.398Z,98.60
2018-12-21T12:18:20.633Z,98.80
2018-12-21T12:20:49.543Z,99.20
2018-12-21T12:23:18.286Z,99.17
2018-12-21T12:25:47.175Z,99.60
2018-12-21T12:28:15.915Z,98.60
2018-12-21T12:30:44.734Z,99.07
2018-12-21T12:33:13.481Z,98.20
2018-12-21T12:35:42.306Z,99.40
2018-12-21T12:38:12.186Z,99.80
2018-12-21T12:40:40.935Z,99.83
2018-12-21T12:43:09.674Z,102.90
2018-12-21T12:45:38.414Z,99.00
2018-12-21T12:48:07.236Z,98.97
2018-12-21T12:50:36.054Z,99.30
2018-12-21T12:53:05.847Z,102.00
2018-12-21T12:55:34.747Z,98.80
2018-12-21T12:58:03.620Z,99.50
2018-12-21T13:00:32.450Z,103.00
2018-12-21T13:03:01.196Z,99.43
2018-12-21T13:05:30.935Z,100.20
2018-12-21T13:08:00.939Z,99.13
2018-12-21T13:10:29.779Z,98.73
2018-12-21T13:12:59.503Z,100.10
2018-12-21T13:15:28.243Z,101.03
2018-12-21T13:17:57.069Z,99.60
2018-12-21T13:20:25.893Z,103.17
2018-12-21T13:22:54.765Z,99.93
2018-12-21T13:25:23.587Z,103.30
2018-12-21T13:27:52.335Z,99.30
2018-12-21T13:30:21.158Z,99.67
2018-12-21T13:32:49.901Z,101.07
2018-12-21T13:35:18.660Z,99.23
2018-12-21T13:37:47.414Z,103.00
2018-12-21T13:40:16.171Z,98.63
2018-12-21T13:42:44.928Z,99.67
2018-12-21T13:45:13.684Z,99.37
2018-12-21T13:47:42.510Z,99.40
2018-12-21T13:50:13.773Z,100.00
2018-12-21T13:52:42.636Z,98.97
2018-12-21T13:55:19.992Z,100.37
2018-12-21T13:57:42.153Z,98.57
2018-12-21T14:00:11.214Z,99.93
2018-12-21T14:02:40.026Z,98.93
2018-12-21T14:05:08.775Z,101.10
2018-12-21T14:07:37.594Z,99.93
2018-12-21T14:10:10.422Z,99.23
2018-12-21T14:12:39.255Z,101.17
2018-12-21T14:15:08.793Z,100.57
2018-12-21T14:17:37.550Z,99.00
2018-12-21T14:20:09.659Z,98.83
2018-12-21T14:22:38.551Z,99.60
2018-12-21T14:25:08.248Z,99.73
2018-12-21T14:27:36.987Z,99.20
2018-12-21T14:30:07.495Z,100.40
2018-12-21T14:32:36.242Z,98.87
2018-12-21T14:35:06.134Z,99.40
2018-12-21T14:37:34.868Z,99.77
2018-12-21T14:40:04.090Z,101.37
2018-12-21T14:42:32.830Z,102.97
2018-12-21T14:45:01.654Z,102.57
2018-12-21T14:47:30.385Z,98.80
2018-12-21T14:49:59.136Z,100.20
2018-12-21T14:52:27.930Z,98.73
2018-12-21T14:54:56.665Z,100.63
2018-12-21T14:57:25.410Z,99.57
2018-12-21T14:59:54.162Z,101.27
2018-12-21T15:02:22.895Z,99.63
2018-12-21T15:04:51.647Z,100.47
2018-12-21T15:07:20.390Z,101.00
2018-12-21T15:09:49.139Z,99.60
2018-12-21T15:12:17.953Z,99.93
2018-12-21T15:14:46.700Z,99.77
2018-12-21T15:17:15.530Z,100.10
2018-12-21T15:19:44.279Z,99.10
2018-12-21T15:22:13.019Z,99.77
2018-12-21T15:24:41.775Z,101.43
2018-12-21T15:27:10.773Z,99.50
2018-12-21T15:29:41.065Z,99.83
2018-12-21T15:32:11.058Z,100.73
2018-12-21T15:34:39.910Z,101.63
2018-12-21T15:37:08.677Z,100.37
2018-12-21T15:39:37.466Z,100.70
2018-12-21T15:42:06.218Z,102.87
2018-12-21T15:44:35.132Z,101.17
2018-12-21T15:47:08.961Z,101.63
2018-12-21T15:49:34.966Z,100.87
2018-12-21T15:52:04.189Z,105.03
2018-12-21T15:54:33.107Z,102.80
2018-12-21T15:57:01.979Z,101.90
2018-12-21T15:59:30.723Z,101.53
2018-12-21T16:01:59.469Z,101.37
2018-12-21T16:04:28.216Z,101.37
2018-12-21T16:06:56.962Z,100.83
2018-12-21T16:09:25.722Z,101.73
2018-12-21T16:11:54.467Z,118.60
2018-12-21T16:14:23.304Z,102.37
2018-12-21T16:16:53.250Z,105.97
2018-12-21T16:19:21.987Z,114.20
2018-12-21T16:21:50.841Z,104.97
2018-12-21T16:24:19.727Z,96.53
2018-12-21T16:26:48.473Z,93.97
2018-12-21T16:29:17.214Z,96.77
2018-12-21T16:31:46.137Z,97.07
2018-12-21T16:34:15.006Z,95.70
2018-12-21T16:36:43.826Z,91.43
2018-12-21T16:39:12.587Z,90.97
2018-12-21T16:41:41.334Z,114.40
2018-12-21T16:44:10.071Z,95.13
2018-12-21T16:46:45.169Z,94.33
2018-12-21T16:49:13.934Z,105.50
2018-12-21T16:51:42.675Z,93.67
2018-12-21T16:54:11.442Z,98.20
2018-12-21T16:56:40.167Z,93.10
2018-12-21T16:59:08.900Z,94.93
2018-12-21T17:01:37.724Z,95.27
2018-12-21T17:04:06.546Z,98.73
2018-12-21T17:06:37.129Z,94.67
2018-12-21T17:09:07.651Z,94.90
2018-12-21T17:11:36.385Z,96.23
2018-12-21T17:14:05.502Z,91.77
2018-12-21T17:16:34.350Z,93.60
2018-12-21T17:19:14.753Z,95.23
2018-12-21T17:21:43.507Z,97.60
2018-12-21T17:24:12.250Z,98.90
2018-12-21T17:26:41.163Z,98.90
2018-12-21T17:29:09.907Z,106.60
2018-12-21T17:31:38.647Z,94.23
2018-12-21T17:34:07.394Z,99.60
2018-12-21T17:36:36.143Z,95.07
2018-12-21T17:39:07.011Z,92.47
2018-12-21T17:41:36.982Z,96.77
2018-12-21T17:44:05.694Z,90.57
2018-12-21T17:46:34.455Z,96.40
2018-12-21T17:49:03.334Z,118.17
2018-12-21T17:51:33.280Z,94.87
2018-12-21T17:54:03.779Z,93.50
2018-12-21T17:56:33.169Z,98.60
2018-12-21T17:59:01.991Z,104.87
2018-12-21T18:01:32.126Z,95.27
2018-12-21T18:04:25.105Z,92.93
2018-12-21T18:06:53.851Z,94.00
2018-12-21T18:09:23.563Z,92.60
2018-12-21T18:11:57.150Z,88.67
2018-12-21T18:14:23.266Z,95.43
2018-12-21T18:16:52.164Z,88.87
2018-12-21T18:19:20.918Z,90.57
2018-12-21T18:21:54.686Z,90.57
2018-12-21T18:24:24.198Z,92.50
2018-12-21T18:26:53.014Z,100.67
2018-12-21T18:29:21.771Z,96.97
2018-12-21T18:31:56.225Z,95.53
2018-12-21T18:34:29.538Z,104.27
2018-12-21T18:36:58.479Z,96.03
2018-12-21T18:39:27.214Z,95.93
2018-12-21T18:41:55.954Z,99.80
2018-12-21T18:44:24.694Z,96.37
2018-12-21T18:46:53.542Z,107.67
2018-12-21T18:49:22.354Z,99.53
2018-12-21T18:51:51.093Z,89.77
2018-12-21T18:54:19.858Z,94.27
2018-12-21T18:57:01.022Z,97.37
2018-12-21T18:59:29.769Z,94.73
2018-12-21T19:01:58.526Z,88.63
2018-12-21T19:04:27.267Z,98.13
2018-12-21T19:06:56.097Z,94.47
2018-12-21T19:09:24.926Z,93.23
2018-12-21T19:11:53.663Z,98.13
2018-12-21T19:14:22.470Z,94.30
2018-12-21T19:16:51.210Z,91.13
2018-12-21T19:19:20.330Z,95.50
2018-12-21T19:21:49.079Z,95.17
2018-12-21T19:24:17.892Z,89.30
2018-12-21T19:26:46.636Z,90.13
2018-12-21T19:29:15.373Z,91.60
2018-12-21T19:31:44.242Z,94.13
2018-12-21T19:34:13.058Z,91.97
2018-12-21T19:36:41.885Z,97.63
2018-12-21T19:39:11.297Z,95.07
2018-12-21T19:41:40.206Z,100.27
2018-12-21T19:44:08.952Z,92.37
2018-12-21T19:46:37.699Z,90.13
2018-12-21T19:49:06.574Z,90.87
2018-12-21T19:51:35.314Z,96.57
2018-12-21T19:54:05.146Z,90.73
2018-12-21T19:57:04.416Z,99.30
2018-12-21T19:59:30.064Z,89.37
2018-12-21T20:01:58.962Z,90.87
2018-12-21T20:04:27.794Z,91.80
2018-12-21T20:06:56.536Z,95.43
2018-12-21T20:09:25.266Z,88.67
2018-12-21T20:11:54.007Z,93.73
2018-12-21T20:14:22.823Z,94.30
2018-12-21T20:16:51.563Z,89.23
2018-12-21T20:19:20.348Z,100.47
2018-12-21T20:21:49.190Z,93.83
2018-12-21T20:24:19.812Z,95.37
2018-12-21T20:26:51.157Z,96.07
2018-12-21T20:29:19.894Z,98.60
2018-12-21T20:31:48.647Z,119.53
2018-12-21T20:34:17.382Z,93.47
2018-12-21T20:36:46.215Z,96.40
2018-12-21T20:39:21.659Z,96.40
2018-12-21T20:41:50.549Z,96.00
2018-12-21T20:44:19.450Z,88.33
2018-12-21T20:46:48.194Z,90.20
2018-12-21T20:49:16.934Z,92.03
2018-12-21T20:51:45.674Z,94.10
2018-12-21T20:54:14.410Z,91.47
2018-12-21T20:56:46.540Z,93.13
2018-12-21T20:59:19.238Z,90.53
2018-12-21T21:01:48.010Z,94.63
2018-12-21T21:04:16.746Z,93.13
2018-12-21T21:06:45.538Z,93.37
2018-12-21T21:09:14.894Z,93.27
2018-12-21T21:11:43.825Z,90.97
2018-12-21T21:14:14.204Z,88.00
2018-12-21T21:16:42.938Z,90.50
2018-12-21T21:19:11.690Z,93.80
2018-12-21T21:21:40.570Z,90.97
2018-12-21T21:24:09.310Z,97.00
2018-12-21T21:26:38.067Z,91.87
2018-12-21T21:29:07.200Z,91.67
2018-12-21T21:31:38.414Z,87.90
2018-12-21T21:34:07.226Z,86.50
2018-12-21T21:36:35.963Z,88.53
2018-12-21T21:39:06.417Z,91.20
2018-12-21T21:41:35.302Z,89.70
2018-12-21T21:44:04.126Z,87.23
2018-12-21T21:46:32.853Z,90.37
2018-12-21T21:49:01.679Z,90.37
2018-12-21T21:51:30.494Z,89.50
2018-12-21T21:53:59.248Z,87.13
2018-12-21T21:56:27.975Z,86.43
2018-12-21T21:58:56.800Z,88.00
2018-12-21T22:01:25.548Z,87.90
2018-12-21T22:03:54.285Z,87.83
2018-12-21T22:06:23.099Z,87.70
2018-12-21T22:08:51.846Z,89.00
2018-12-21T22:11:20.662Z,86.53
2018-12-21T22:13:49.410Z,87.17
2018-12-21T22:16:18.206Z,90.23
2018-12-21T22:18:46.954Z,86.23
2018-12-21T22:21:15.742Z,87.47
2018-12-21T22:23:44.484Z,88.03
2018-12-21T22:26:13.373Z,88.73
2018-12-21T22:28:42.120Z,87.50
2018-12-21T22:31:10.933Z,84.83
2018-12-21T22:33:39.682Z,86.77
2018-12-21T22:36:08.433Z,87.13
2018-12-21T22:38:37.175Z,94.63
2018-12-21T22:41:06.054Z,85.73
2018-12-21T22:43:34.800Z,87.57
2018-12-21T22:46:03.691Z,87.77
2018-12-21T22:48:32.431Z,88.87
2018-12-21T22:51:01.166Z,85.43
2018-12-21T22:53:29.903Z,97.17
2018-12-21T22:55:58.654Z,88.20
2018-12-21T22:58:27.398Z,106.33
2018-12-21T23:00:56.226Z,86.97
2018-12-21T23:03:25.185Z,87.13
2018-12-21T23:05:53.996Z,88.70
2018-12-21T23:08:22.734Z,88.83
2018-12-21T23:10:51.471Z,86.77
2018-12-21T23:13:20.295Z,88.23
2018-12-21T23:15:49.118Z,87.40
2018-12-21T23:18:17.854Z,87.23
2018-12-21T23:20:46.592Z,85.23
2018-12-21T23:23:15.338Z,84.77
2018-12-21T23:25:44.070Z,86.37
2018-12-21T23:28:12.812Z,93.67
2018-12-21T23:30:41.567Z,87.57
2018-12-21T23:33:10.392Z,85.90
2018-12-21T23:35:39.117Z,87.50
2018-12-21T23:38:07.895Z,85.13
2018-12-21T23:40:36.634Z,87.33
2018-12-21T23:43:05.391Z,85.73
2018-12-21T23:45:34.122Z,85.93
2018-12-21T23:48:02.874Z,87.60
2018-12-21T23:50:31.612Z,85.13
2018-12-21T23:53:00.363Z,86.97
2018-12-21T23:55:29.122Z,85.20
2018-12-21T23:57:57.862Z,84.37
